createdAt,value
2018-08-17T00:01:35.283Z,9.30
2018-08-17T00:04:12.199Z,7.90
2018-08-17T00:06:48.043Z,7.40
2018-08-17T00:11:33.663Z,9.95
2018-08-17T00:14:10.076Z,9.17
2018-08-17T00:16:46.143Z,8.37
2018-08-17T00:19:22.199Z,8.18
2018-08-17T00:21:58.095Z,8.47
2018-08-17T00:24:33.965Z,9.67
2018-08-17T00:27:10.160Z,8.97
2018-08-17T00:29:46.267Z,9.35
2018-08-17T00:32:22.108Z,8.70
2018-08-17T00:34:58.115Z,10.33
2018-08-17T00:37:53.478Z,10.50
2018-08-17T00:40:29.501Z,10.03
2018-08-17T00:43:05.301Z,7.67
2018-08-17T00:45:41.004Z,6.53
2018-08-17T00:48:17.296Z,5.10
2018-08-17T00:50:53.131Z,4.87
2018-08-17T00:53:29.035Z,4.60
2018-08-17T00:56:04.966Z,4.20
2018-08-17T01:00:55.724Z,4.30
2018-08-17T01:03:31.751Z,4.10
2018-08-17T01:06:07.673Z,4.00
2018-08-17T01:08:43.064Z,4.13
2018-08-17T01:11:19.163Z,3.77
2018-08-17T01:13:55.101Z,6.00
2018-08-17T01:16:31.064Z,7.72
2018-08-17T01:19:13.580Z,3.80
2018-08-17T01:21:49.089Z,4.47
2018-08-17T01:24:25.158Z,5.30
2018-08-17T01:27:01.948Z,5.30
2018-08-17T01:29:37.709Z,3.98
2018-08-17T01:32:13.550Z,6.00
2018-08-17T01:34:49.477Z,4.50
2018-08-17T01:37:25.468Z,5.90
2018-08-17T01:40:01.430Z,13.20
2018-08-17T01:42:37.669Z,6.10
2018-08-17T01:45:13.951Z,15.85
2018-08-17T01:47:49.842Z,17.50
2018-08-17T01:50:26.337Z,20.72
2018-08-17T01:53:02.676Z,21.90
2018-08-17T01:55:39.201Z,23.55
2018-08-17T01:58:15.111Z,23.73
2018-08-17T02:00:51.063Z,25.20
2018-08-17T02:03:27.104Z,26.03
2018-08-17T02:06:02.664Z,26.20
2018-08-17T02:08:38.700Z,25.27
2018-08-17T02:11:14.633Z,25.90
2018-08-17T02:13:50.558Z,25.47
2018-08-17T02:16:26.331Z,24.70
2018-08-17T02:20:23.540Z,26.30
2018-08-17T02:22:59.347Z,25.55
2018-08-17T02:25:35.038Z,28.03
2018-08-17T02:28:10.547Z,26.67
2018-08-17T02:30:46.105Z,26.40
2018-08-17T02:33:22.054Z,25.43
2018-08-17T02:35:58.031Z,27.93
2018-08-17T02:38:33.783Z,26.63
2018-08-17T02:41:09.461Z,25.27
2018-08-17T02:43:45.060Z,25.65
2018-08-17T02:46:21.014Z,25.40
2018-08-17T02:48:56.703Z,25.40
2018-08-17T02:51:32.686Z,25.70
2018-08-17T02:54:08.347Z,25.33
2018-08-17T02:56:44.331Z,25.72
2018-08-17T02:59:20.359Z,25.67
2018-08-17T03:01:55.838Z,25.37
2018-08-17T03:05:30.368Z,24.93
2018-08-17T03:08:06.354Z,24.90
2018-08-17T03:10:41.800Z,25.87
2018-08-17T03:13:17.687Z,26.37
2018-08-17T03:15:53.531Z,26.45
2018-08-17T03:18:29.353Z,25.30
2018-08-17T03:21:05.077Z,25.63
2018-08-17T03:23:41.730Z,26.67
2018-08-17T03:26:17.685Z,25.75
2018-08-17T03:28:53.397Z,25.00
2018-08-17T03:31:29.388Z,25.20
2018-08-17T03:34:06.539Z,25.32
2018-08-17T03:36:42.041Z,25.67
2018-08-17T03:39:18.057Z,26.33
2018-08-17T03:41:54.069Z,25.95
2018-08-17T03:44:29.678Z,25.60
2018-08-17T03:47:05.355Z,24.23
2018-08-17T03:49:41.378Z,25.03
2018-08-17T03:52:17.251Z,24.93
2018-08-17T03:57:48.091Z,25.50
2018-08-17T04:00:24.039Z,25.43
2018-08-17T04:02:59.893Z,25.77
2018-08-17T04:05:35.604Z,25.68
2018-08-17T04:08:11.385Z,25.20
2018-08-17T04:10:47.385Z,26.62
2018-08-17T04:13:23.132Z,25.17
2018-08-17T04:15:59.032Z,25.48
2018-08-17T04:18:35.014Z,26.17
2018-08-17T04:21:10.716Z,26.30
2018-08-17T04:24:24.122Z,25.97
2018-08-17T04:26:59.713Z,25.77
2018-08-17T04:29:37.143Z,25.70
2018-08-17T04:32:12.868Z,26.45
2018-08-17T04:34:48.668Z,25.88
2018-08-17T04:37:24.570Z,26.17
2018-08-17T04:40:00.387Z,25.73
2018-08-17T04:42:36.097Z,26.67
2018-08-17T04:46:42.394Z,27.17
2018-08-17T04:50:36.408Z,26.07
2018-08-17T04:53:12.634Z,25.95
2018-08-17T04:55:48.075Z,21.10
2018-08-17T04:58:23.591Z,15.70
2018-08-17T05:00:59.709Z,17.00
2018-08-17T05:03:35.588Z,15.58
2018-08-17T05:06:11.384Z,12.43
2018-08-17T05:08:47.071Z,10.97
2018-08-17T05:11:22.705Z,10.20
2018-08-17T05:13:58.582Z,12.67
2018-08-17T05:16:34.224Z,13.35
2018-08-17T05:19:10.157Z,12.97
2018-08-17T05:21:45.964Z,12.50
2018-08-17T05:24:21.769Z,13.80
2018-08-17T05:29:06.890Z,13.60
2018-08-17T05:31:42.682Z,13.60
2018-08-17T05:34:18.425Z,13.45
2018-08-17T05:36:54.042Z,13.17
2018-08-17T05:39:29.806Z,13.35
2018-08-17T05:42:05.442Z,14.30
2018-08-17T05:44:41.318Z,13.72
2018-08-17T05:47:17.255Z,14.40
2018-08-17T05:49:52.884Z,13.53
2018-08-17T05:53:08.409Z,12.63
2018-08-17T05:55:44.237Z,13.90
2018-08-17T05:58:19.998Z,13.20
2018-08-17T06:00:55.755Z,13.53
2018-08-17T06:03:31.349Z,12.80
2018-08-17T06:06:07.189Z,12.87
2018-08-17T06:08:43.119Z,11.83
2018-08-17T06:11:19.711Z,11.47
2018-08-17T06:13:55.434Z,11.83
2018-08-17T06:16:31.252Z,13.10
2018-08-17T06:21:17.304Z,12.70
2018-08-17T06:24:56.912Z,13.50
2018-08-17T06:27:33.706Z,13.50
2018-08-17T06:30:12.415Z,12.73
2018-08-17T06:32:49.337Z,12.73
2018-08-17T06:35:25.987Z,12.80
2018-08-17T06:38:03.444Z,12.58
2018-08-17T06:40:39.831Z,12.95
2018-08-17T06:43:17.209Z,12.43
2018-08-17T06:45:54.826Z,12.97
2018-08-17T06:48:32.541Z,13.20
2018-08-17T06:51:09.358Z,12.40
2018-08-17T06:53:46.196Z,12.53
2018-08-17T06:56:23.750Z,11.00
2018-08-17T06:59:00.824Z,11.87
2018-08-17T07:01:37.566Z,12.10
2018-08-17T07:04:14.776Z,12.10
2018-08-17T07:06:52.619Z,11.33
2018-08-17T07:09:30.083Z,11.20
2018-08-17T07:12:06.899Z,11.28
2018-08-17T07:14:43.774Z,11.20
2018-08-17T07:17:20.760Z,11.63
2018-08-17T07:19:57.614Z,10.93
2018-08-17T07:22:34.440Z,12.47
2018-08-17T07:25:11.235Z,11.73
2018-08-17T07:27:48.834Z,15.63
2018-08-17T07:30:26.455Z,14.30
2018-08-17T07:33:03.432Z,13.30
2018-08-17T07:35:40.493Z,13.43
2018-08-17T07:38:17.264Z,13.90
2018-08-17T07:40:54.724Z,13.83
2018-08-17T07:43:31.865Z,15.32
2018-08-17T07:46:08.451Z,15.43
2018-08-17T07:48:45.318Z,16.40
2018-08-17T07:51:23.137Z,16.23
2018-08-17T07:54:00.635Z,16.65
2018-08-17T07:56:38.204Z,14.20
2018-08-17T07:59:15.464Z,14.75
2018-08-17T08:01:52.123Z,13.85
2018-08-17T08:04:29.778Z,13.75
2018-08-17T08:07:07.407Z,17.53
2018-08-17T08:09:45.050Z,16.03
2018-08-17T08:12:21.768Z,16.87
2018-08-17T08:14:59.633Z,19.77
2018-08-17T08:18:20.106Z,15.63
2018-08-17T08:20:58.188Z,17.15
2018-08-17T08:23:36.545Z,14.55
2018-08-17T08:26:13.685Z,14.20
2018-08-17T08:28:50.445Z,14.03
2018-08-17T08:31:27.367Z,17.43
2018-08-17T08:34:04.884Z,18.10
2018-08-17T08:36:41.582Z,17.55
2018-08-17T08:39:18.652Z,17.37
2018-08-17T08:41:55.628Z,16.57
2018-08-17T08:44:32.262Z,16.80
2018-08-17T08:47:10.464Z,17.87
2018-08-17T08:49:47.570Z,17.30
2018-08-17T08:52:24.860Z,17.80
2018-08-17T08:57:22.831Z,17.02
2018-08-17T08:59:59.893Z,12.15
2018-08-17T09:02:36.764Z,16.67
2018-08-17T09:05:14.658Z,14.35
2018-08-17T09:07:51.650Z,16.30
2018-08-17T09:10:28.908Z,14.55
2018-08-17T09:13:05.598Z,19.62
2018-08-17T09:15:42.200Z,13.77
2018-08-17T09:18:19.966Z,16.57
2018-08-17T09:20:57.721Z,17.00
2018-08-17T09:23:35.185Z,15.40
2018-08-17T09:26:12.500Z,14.95
2018-08-17T09:28:49.822Z,17.30
2018-08-17T09:31:26.382Z,16.27
2018-08-17T09:34:03.658Z,17.90
2018-08-17T09:36:40.505Z,16.30
2018-08-17T09:39:17.600Z,17.10
2018-08-17T09:41:55.193Z,15.90
2018-08-17T09:44:32.302Z,18.85
2018-08-17T09:47:09.509Z,19.02
2018-08-17T09:49:46.517Z,19.50
2018-08-17T09:52:23.856Z,18.37
2018-08-17T09:55:00.902Z,18.93
2018-08-17T09:57:37.713Z,17.23
2018-08-17T10:00:15.739Z,17.10
2018-08-17T10:02:56.424Z,16.50
2018-08-17T10:05:37.555Z,17.10
2018-08-17T10:08:18.074Z,17.60
2018-08-17T10:10:55.285Z,19.82
2018-08-17T10:13:32.262Z,18.70
2018-08-17T10:16:09.223Z,17.30
2018-08-17T10:18:46.229Z,17.93
2018-08-17T10:21:23.439Z,17.17
2018-08-17T10:24:00.085Z,17.50
2018-08-17T10:26:36.997Z,17.12
2018-08-17T10:29:14.062Z,16.85
2018-08-17T10:31:51.834Z,18.50
2018-08-17T10:34:29.400Z,17.80
2018-08-17T10:37:06.909Z,17.82
2018-08-17T10:39:44.176Z,18.50
2018-08-17T10:42:21.178Z,15.60
2018-08-17T10:44:58.964Z,17.77
2018-08-17T10:47:35.780Z,17.13
2018-08-17T10:50:17.770Z,17.10
2018-08-17T10:52:55.947Z,18.60
2018-08-17T10:55:43.416Z,17.97
2018-08-17T10:58:21.076Z,19.33
2018-08-17T11:00:58.506Z,18.17
2018-08-17T11:03:36.063Z,16.17
2018-08-17T11:06:13.480Z,16.60
2018-08-17T11:08:51.786Z,16.82
2018-08-17T11:11:28.441Z,18.73
2018-08-17T11:14:06.130Z,16.48
2018-08-17T11:16:43.576Z,16.07
2018-08-17T11:19:20.869Z,14.47
2018-08-17T11:21:58.790Z,16.70
2018-08-17T11:24:35.320Z,16.15
2018-08-17T11:27:12.881Z,14.50
2018-08-17T11:29:50.261Z,15.83
2018-08-17T11:32:28.420Z,15.77
2018-08-17T11:35:05.770Z,17.47
2018-08-17T11:37:43.084Z,16.65
2018-08-17T11:40:20.942Z,15.00
2018-08-17T11:42:58.837Z,16.15
2018-08-17T11:45:36.072Z,16.00
2018-08-17T11:48:13.307Z,16.30
2018-08-17T11:50:51.457Z,16.25
2018-08-17T11:53:28.817Z,15.65
2018-08-17T11:56:06.369Z,17.77
2018-08-17T11:58:43.485Z,16.67
2018-08-17T12:01:24.868Z,15.70
2018-08-17T12:04:02.262Z,15.15
2018-08-17T12:06:39.294Z,15.67
2018-08-17T12:09:15.945Z,15.33
2018-08-17T12:11:53.065Z,17.80
2018-08-17T12:14:30.370Z,13.65
2018-08-17T12:17:07.435Z,16.57
2018-08-17T12:19:44.523Z,20.32
2018-08-17T12:22:22.094Z,16.02
2018-08-17T12:24:58.945Z,16.73
2018-08-17T12:27:35.719Z,15.08
2018-08-17T12:30:14.101Z,16.77
2018-08-17T12:32:51.895Z,16.37
2018-08-17T12:35:29.503Z,16.10
2018-08-17T12:38:11.275Z,16.05
2018-08-17T12:40:53.280Z,15.53
2018-08-17T12:43:33.875Z,15.03
2018-08-17T12:46:10.736Z,16.60
2018-08-17T12:48:47.465Z,20.23
2018-08-17T12:51:24.866Z,17.12
2018-08-17T12:54:01.576Z,15.48
2018-08-17T12:56:38.932Z,17.03
2018-08-17T12:59:16.316Z,15.55
2018-08-17T13:01:54.789Z,15.25
2018-08-17T13:04:31.954Z,19.07
2018-08-17T13:07:08.964Z,15.18
2018-08-17T13:09:45.347Z,16.77
2018-08-17T13:12:22.561Z,17.23
2018-08-17T13:17:39.824Z,16.42
2018-08-17T13:20:17.347Z,15.70
2018-08-17T13:22:54.133Z,16.67
2018-08-17T13:25:32.090Z,17.95
2018-08-17T13:28:08.724Z,17.70
2018-08-17T13:30:45.854Z,15.83
2018-08-17T13:33:23.118Z,14.63
2018-08-17T13:36:00.348Z,16.02
2018-08-17T13:38:37.450Z,16.50
2018-08-17T13:41:14.077Z,14.57
2018-08-17T13:43:51.362Z,18.10
2018-08-17T13:46:28.311Z,17.80
2018-08-17T13:49:05.885Z,16.50
2018-08-17T13:51:43.272Z,18.05
2018-08-17T13:54:20.713Z,19.93
2018-08-17T13:56:58.346Z,15.43
2018-08-17T13:59:35.825Z,16.73
2018-08-17T14:02:13.078Z,19.42
2018-08-17T14:04:49.589Z,19.10
2018-08-17T14:07:27.117Z,17.17
2018-08-17T14:10:03.528Z,16.15
2018-08-17T14:12:41.148Z,17.70
2018-08-17T14:15:18.308Z,19.57
2018-08-17T14:17:56.109Z,19.60
2018-08-17T14:20:32.910Z,16.70
2018-08-17T14:23:09.486Z,20.17
2018-08-17T14:25:46.328Z,21.50
2018-08-17T14:28:24.622Z,19.10
2018-08-17T14:31:01.901Z,19.85
2018-08-17T14:33:39.259Z,18.87
2018-08-17T14:36:15.785Z,19.67
2018-08-17T14:38:53.856Z,18.42
2018-08-17T14:41:31.371Z,19.73
2018-08-17T14:44:08.264Z,16.30
2018-08-17T14:46:44.982Z,17.93
2018-08-17T14:49:21.349Z,17.10
2018-08-17T14:51:58.360Z,20.50
2018-08-17T14:54:35.330Z,19.07
2018-08-17T14:57:12.575Z,17.80
2018-08-17T14:59:49.674Z,16.50
2018-08-17T15:02:27.144Z,15.93
2018-08-17T15:05:04.583Z,15.53
2018-08-17T15:07:41.869Z,16.42
2018-08-17T15:10:20.129Z,19.70
2018-08-17T15:12:58.530Z,15.83
2018-08-17T15:18:10.558Z,16.05
2018-08-17T15:20:48.326Z,19.13
2018-08-17T15:23:25.485Z,21.97
2018-08-17T15:26:03.371Z,22.07
2018-08-17T15:28:41.066Z,20.27
2018-08-17T15:31:18.649Z,16.40
2018-08-17T15:33:55.682Z,19.50
2018-08-17T15:36:32.402Z,15.60
2018-08-17T15:39:10.168Z,19.57
2018-08-17T15:41:49.371Z,17.33
2018-08-17T15:44:28.030Z,19.52
2018-08-17T15:47:05.533Z,18.73
2018-08-17T15:49:43.113Z,21.55
2018-08-17T15:52:19.756Z,19.63
2018-08-17T15:54:57.504Z,25.65
2018-08-17T15:57:34.509Z,24.80
2018-08-17T16:00:16.492Z,24.70
2018-08-17T16:02:52.403Z,24.33
2018-08-17T16:05:28.353Z,23.97
2018-08-17T16:08:04.884Z,26.37
2018-08-17T16:10:40.365Z,26.25
2018-08-17T16:13:16.183Z,26.77
2018-08-17T16:15:51.987Z,25.40
2018-08-17T16:18:27.893Z,24.07
2018-08-17T16:21:03.873Z,24.80
2018-08-17T16:23:39.576Z,26.40
2018-08-17T16:26:15.297Z,26.70
2018-08-17T16:28:51.155Z,24.05
2018-08-17T16:31:26.865Z,24.87
2018-08-17T16:34:02.785Z,24.82
2018-08-17T16:36:42.636Z,25.15
2018-08-17T16:39:19.548Z,27.87
2018-08-17T16:41:55.312Z,24.57
2018-08-17T16:44:30.956Z,26.07
2018-08-17T16:47:06.462Z,26.17
2018-08-17T16:49:42.353Z,24.67
2018-08-17T16:52:18.057Z,25.73
2018-08-17T16:54:55.152Z,25.33
2018-08-17T16:57:30.889Z,28.10
2018-08-17T17:00:06.813Z,24.80
2018-08-17T17:02:42.973Z,25.03
2018-08-17T17:05:18.954Z,24.77
2018-08-17T17:07:54.961Z,25.75
2018-08-17T17:10:35.013Z,26.52
2018-08-17T17:13:10.881Z,25.83
2018-08-17T17:15:46.619Z,25.53
2018-08-17T17:18:22.514Z,25.50
2018-08-17T17:23:32.311Z,25.23
2018-08-17T17:26:08.852Z,26.87
2018-08-17T17:28:44.792Z,25.60
2018-08-17T17:31:23.984Z,26.50
2018-08-17T17:33:59.937Z,24.37
2018-08-17T17:36:35.921Z,24.00
2018-08-17T17:39:15.663Z,27.80
2018-08-17T17:41:52.820Z,32.50
2018-08-17T17:44:30.084Z,26.30
2018-08-17T17:47:07.684Z,22.73
2018-08-17T17:49:44.169Z,23.10
2018-08-17T17:52:21.688Z,21.13
2018-08-17T17:54:57.960Z,21.73
2018-08-17T17:57:35.023Z,20.08
2018-08-17T18:00:12.849Z,19.60
2018-08-17T18:02:51.204Z,19.93
2018-08-17T18:05:28.960Z,20.83
2018-08-17T18:08:12.818Z,17.82
2018-08-17T18:10:50.574Z,19.02
2018-08-17T18:13:27.529Z,17.82
2018-08-17T18:16:03.969Z,17.77
2018-08-17T18:18:41.205Z,19.73
2018-08-17T18:21:18.221Z,19.42
2018-08-17T18:24:13.559Z,18.87
2018-08-17T18:26:54.215Z,17.43
2018-08-17T18:29:31.072Z,17.90
2018-08-17T18:32:08.541Z,17.63
2018-08-17T18:34:45.867Z,16.53
2018-08-17T18:37:22.109Z,17.10
2018-08-17T18:39:59.957Z,18.13
2018-08-17T18:42:37.175Z,18.00
2018-08-17T18:45:14.340Z,19.23
2018-08-17T18:47:51.612Z,16.62
2018-08-17T18:50:29.018Z,17.67
2018-08-17T18:53:06.233Z,17.77
2018-08-17T18:55:43.606Z,16.90
2018-08-17T18:58:21.012Z,16.60
2018-08-17T19:00:58.223Z,16.55
2018-08-17T19:03:35.164Z,17.40
2018-08-17T19:06:12.584Z,17.03
2018-08-17T19:08:49.596Z,16.17
2018-08-17T19:11:26.343Z,16.60
2018-08-17T19:14:03.662Z,17.35
2018-08-17T19:16:41.228Z,17.65
2018-08-17T19:19:18.892Z,16.70
2018-08-17T19:21:56.259Z,15.93
2018-08-17T19:24:33.244Z,16.40
2018-08-17T19:27:11.263Z,15.88
2018-08-17T19:29:48.833Z,15.70
2018-08-17T19:35:25.746Z,16.07
2018-08-17T19:38:03.459Z,16.20
2018-08-17T19:40:40.846Z,15.63
2018-08-17T19:43:18.705Z,15.43
2018-08-17T19:45:56.425Z,16.00
2018-08-17T19:48:33.687Z,16.33
2018-08-17T19:51:14.444Z,16.30
2018-08-17T19:53:51.912Z,16.40
2018-08-17T19:56:29.694Z,15.60
2018-08-17T19:59:07.111Z,15.95
2018-08-17T20:01:44.482Z,15.40
2018-08-17T20:04:22.106Z,15.45
2018-08-17T20:06:59.472Z,16.10
2018-08-17T20:09:36.830Z,14.60
2018-08-17T20:12:15.021Z,15.10
2018-08-17T20:14:52.471Z,15.53
2018-08-17T20:17:30.049Z,15.28
2018-08-17T20:20:07.449Z,15.37
2018-08-17T20:22:44.717Z,15.15
2018-08-17T20:25:23.157Z,16.20
2018-08-17T20:28:00.690Z,15.40
2018-08-17T20:30:38.244Z,15.60
2018-08-17T20:33:35.381Z,15.67
2018-08-17T20:36:14.505Z,15.27
2018-08-17T20:38:52.385Z,15.43
2018-08-17T20:41:30.056Z,15.40
2018-08-17T20:44:08.401Z,16.03
2018-08-17T20:46:46.396Z,16.20
2018-08-17T20:49:23.823Z,15.23
2018-08-17T20:52:03.668Z,14.70
2018-08-17T20:54:40.845Z,15.80
2018-08-17T20:57:18.306Z,14.43
2018-08-17T20:59:55.798Z,14.78
2018-08-17T21:02:33.279Z,15.30
2018-08-17T21:05:11.403Z,15.38
2018-08-17T21:07:49.086Z,14.53
2018-08-17T21:10:26.782Z,14.80
2018-08-17T21:13:04.400Z,15.85
2018-08-17T21:15:41.842Z,15.58
2018-08-17T21:18:19.604Z,15.35
2018-08-17T21:20:57.519Z,15.40
2018-08-17T21:23:35.184Z,15.32
2018-08-17T21:26:12.820Z,15.50
2018-08-17T21:28:50.321Z,14.80
2018-08-17T21:31:29.401Z,15.70
2018-08-17T21:34:06.825Z,15.23
2018-08-17T21:36:44.641Z,15.20
2018-08-17T21:39:22.453Z,15.15
2018-08-17T21:44:35.276Z,14.80
2018-08-17T21:47:12.127Z,14.67
2018-08-17T21:49:49.853Z,15.50
2018-08-17T21:52:27.885Z,15.35
2018-08-17T21:55:06.636Z,15.23
2018-08-17T21:57:44.070Z,14.47
2018-08-17T22:00:34.063Z,14.33
2018-08-17T22:03:28.887Z,15.37
2018-08-17T22:06:05.859Z,14.73
2018-08-17T22:08:43.983Z,14.87
2018-08-17T22:11:32.920Z,14.05
2018-08-17T22:14:10.795Z,15.32
2018-08-17T22:16:48.877Z,14.47
2018-08-17T22:19:42.354Z,15.18
2018-08-17T22:22:21.085Z,14.17
2018-08-17T22:24:58.980Z,14.65
2018-08-17T22:27:36.903Z,14.70
2018-08-17T22:30:24.631Z,14.85
2018-08-17T22:33:02.080Z,14.38
2018-08-17T22:35:39.593Z,14.20
2018-08-17T22:38:16.909Z,14.30
2018-08-17T22:40:54.209Z,15.00
2018-08-17T22:43:31.622Z,14.87
2018-08-17T22:46:11.427Z,13.68
2018-08-17T22:48:48.887Z,13.88
2018-08-17T22:51:26.301Z,13.93
2018-08-17T22:54:04.218Z,14.53
2018-08-17T22:56:41.734Z,14.00
2018-08-17T22:59:20.301Z,14.63
2018-08-17T23:01:57.611Z,14.03
2018-08-17T23:04:35.921Z,13.78
2018-08-17T23:07:13.635Z,14.30
2018-08-17T23:09:51.423Z,14.70
2018-08-17T23:12:28.881Z,14.60
2018-08-17T23:15:07.274Z,13.50
2018-08-17T23:17:47.298Z,13.70
2018-08-17T23:20:29.070Z,13.37
2018-08-17T23:23:08.569Z,14.65
2018-08-17T23:25:46.466Z,14.70
2018-08-17T23:28:24.133Z,14.85
2018-08-17T23:31:01.755Z,14.23
2018-08-17T23:33:40.474Z,13.85
2018-08-17T23:36:18.886Z,14.65
2018-08-17T23:38:58.612Z,13.70
2018-08-17T23:41:37.501Z,14.30
2018-08-17T23:44:15.336Z,14.47
2018-08-17T23:46:51.919Z,14.63
2018-08-17T23:49:29.730Z,13.75
2018-08-17T23:52:07.266Z,14.58
2018-08-17T23:54:47.719Z,13.80
2018-08-17T23:57:24.488Z,13.17
